Minot, North Dakota
Current Conditions -  °F | °C
As of 3:54 AM on Wednesday 22 Oct 2014 (Local Time) from KMOT Reporting Station
Clear Clear  
Wind Chill: 59°   Ceiling: Unl
Heat Index: 59°   Visibility: 10mi
Dew Point: 47°   Wind: 14mph
Humidity: 64%   Direction: 220°SW
Pressure: 29.63"   Gusts: NA
Location:  48.24°N, 101.29°W
Report Text: KMOT 220854Z AUTO 22012KT 10SM CLR 15/08 A2963 RMK AO2 SLP032 T01500083 53017
Loading
Personal Weather Stations






























Interactive Weather Map
Tropical Storm Tracking
New forecast layout! Learn more

10-Day Weather Forecast

Advertisements
Track Severe Weather on mobile